Time;durP1;ratioP1;P1;durP2;ratioP2;P2;SDS_P1;SDS_P2;PMS_P1;PMS_P2;Temp;Humidity;BMP_temperature;BMP_pressure;BME280_temperature;BME280_humidity;BME280_pressure;Samples;Min_cycle;Max_cycle;Signal;HPM_P1;HPM_P2
2022/10/24 00:02:15;;;;;;;;;1.50;1.00;;;;;15.56;78.02;100226.66;4966368;28;8848;-68
2022/10/24 00:04:42;;;;;;;;;1.50;1.00;;;;;15.58;78.11;100232.66;4956260;28;8914;-68
2022/10/24 00:07:09;;;;;;;;;1.00;1.00;;;;;15.61;77.77;100222.41;4967439;28;8835;-68
2022/10/24 00:09:36;;;;;;;;;1.00;1.00;;;;;15.60;78.37;100221.56;4963895;28;8858;-68
2022/10/24 00:12:04;;;;;;;;;2.00;1.00;;;;;15.62;78.26;100214.00;4962442;28;9862;-68
2022/10/24 00:14:31;;;;;;;;;1.00;1.00;;;;;15.66;78.10;100222.50;4971203;28;8832;-67
2022/10/24 00:16:57;;;;;;;;;2.50;2.00;;;;;15.62;78.26;100215.91;4963568;28;8863;-68
2022/10/24 00:19:23;;;;;;;;;1.00;1.00;;;;;15.61;78.25;100214.25;4970012;28;8867;-68
2022/10/24 00:21:50;;;;;;;;;2.75;2.75;;;;;15.58;78.70;100197.38;4955805;28;8851;-68
2022/10/24 00:24:17;;;;;;;;;2.00;1.00;;;;;15.62;78.25;100207.75;4968237;28;8862;-67
2022/10/24 00:26:43;;;;;;;;;2.00;2.00;;;;;15.61;78.19;100195.28;4962808;28;8867;-68
2022/10/24 00:29:10;;;;;;;;;1.25;1.00;;;;;15.63;78.57;100203.97;4965626;28;8854;-68
2022/10/24 00:31:37;;;;;;;;;2.75;1.50;;;;;15.62;78.70;100213.19;4970794;28;8848;-68
2022/10/24 00:34:05;;;;;;;;;2.75;2.00;;;;;15.62;78.47;100211.28;4952492;28;8900;-68
2022/10/24 00:36:32;;;;;;;;;2.00;2.00;;;;;15.64;78.52;100206.47;4964272;28;8859;-70
2022/10/24 00:38:58;;;;;;;;;3.00;2.00;;;;;15.63;78.64;100199.38;4964323;28;8864;-68
2022/10/24 00:41:30;;;;;;;;;2.75;2.00;;;;;15.64;78.89;100206.47;4966697;28;8855;-66
2022/10/24 00:44:23;;;;;;;;;3.25;3.25;;;;;15.62;78.89;100195.00;4954360;28;8856;-68
2022/10/24 00:47:01;;;;;;;;;2.00;2.00;;;;;15.63;78.81;100180.38;4960364;28;9258;-67
2022/10/24 00:49:33;;;;;;;;;4.25;3.00;;;;;15.63;78.49;100188.50;4970595;28;8840;-68
2022/10/24 00:52:06;;;;;;;;;1.75;1.50;;;;;15.58;78.77;100183.00;4971368;28;8894;-67
2022/10/24 00:54:34;;;;;;;;;3.50;3.50;;;;;15.53;78.93;100180.19;4970309;28;8840;-67
2022/10/24 00:57:07;;;;;;;;;3.00;3.00;;;;;15.55;79.04;100180.75;4971129;28;8873;-66
2022/10/24 00:59:35;;;;;;;;;4.00;2.25;;;;;15.54;78.95;100185.38;4970859;28;8836;-67
2022/10/24 01:02:02;;;;;;;;;1.00;1.00;;;;;15.53;79.06;100182.91;4964653;28;8858;-67
2022/10/24 01:04:29;;;;;;;;;2.25;2.00;;;;;15.54;79.28;100181.84;4963728;28;9548;-67
2022/10/24 01:07:27;;;;;;;;;2.50;2.00;;;;;15.56;78.34;100183.25;4971183;28;8886;-68
2022/10/24 01:10:10;;;;;;;;;2.00;2.00;;;;;15.55;78.46;100178.06;4958727;28;8933;-66
2022/10/24 01:13:11;;;;;;;;;1.00;1.00;;;;;15.52;78.71;100165.00;4969101;28;8916;-67
2022/10/24 01:15:52;;;;;;;;;2.00;2.00;;;;;15.52;78.23;100165.00;4967783;28;8863;-67
2022/10/24 01:18:23;;;;;;;;;0.00;0.00;;;;;15.52;78.25;100167.72;4973126;28;8851;-66
2022/10/24 01:21:15;;;;;;;;;4.50;3.00;;;;;15.54;78.41;100162.84;4971287;28;8836;-68
2022/10/24 01:24:03;;;;;;;;;1.00;1.00;;;;;15.58;78.09;100158.59;4967733;28;8828;-67
2022/10/24 01:26:56;;;;;;;;;2.00;2.00;;;;;15.61;77.98;100152.69;4974495;28;8852;-68
2022/10/24 01:29:51;;;;;;;;;2.25;2.25;;;;;15.59;77.48;100155.63;4964958;28;8836;-66
2022/10/24 01:32:38;;;;;;;;;1.00;1.00;;;;;15.61;77.56;100144.53;4968272;28;8833;-68
2022/10/24 01:35:22;;;;;;;;;2.25;2.00;;;;;15.56;77.40;100144.47;4971563;28;8844;-68
2022/10/24 01:38:21;;;;;;;;;2.50;2.50;;;;;15.52;77.43;100151.44;4964003;28;8856;-67
2022/10/24 01:40:53;;;;;;;;;2.25;2.25;;;;;15.53;77.48;100155.78;4963369;28;8863;-68
2022/10/24 01:43:26;;;;;;;;;3.00;2.75;;;;;15.51;77.17;100137.03;4985043;28;8960;-68
2022/10/24 01:45:59;;;;;;;;;4.00;2.50;;;;;15.45;77.10;100137.19;4972259;28;8898;-66
2022/10/24 01:48:29;;;;;;;;;3.00;3.00;;;;;15.48;77.25;100131.28;4970256;28;8836;-65
2022/10/24 01:50:58;;;;;;;;;2.00;1.75;;;;;15.50;76.81;100129.97;4962385;28;8859;-68
2022/10/24 01:53:28;;;;;;;;;1.75;1.00;;;;;15.57;76.69;100125.22;4965959;28;9564;-66
2022/10/24 01:55:56;;;;;;;;;1.50;1.50;;;;;15.58;76.74;100132.28;4971169;28;8876;-67
2022/10/24 01:58:22;;;;;;;;;2.00;1.25;;;;;15.57;76.27;100124.41;4965904;28;8828;-67
2022/10/24 02:00:51;;;;;;;;;1.75;1.75;;;;;15.56;76.40;100118.16;4972253;28;8828;-67
2022/10/24 02:03:35;;;;;;;;;1.00;1.00;;;;;15.59;76.30;100116.81;4969011;28;8848;-68
2022/10/24 02:06:10;;;;;;;;;2.00;1.75;;;;;15.54;75.36;100114.03;4959376;28;8883;-68
2022/10/24 02:08:44;;;;;;;;;2.00;2.00;;;;;15.49;75.97;100109.34;4963130;28;8824;-68
2022/10/24 02:11:11;;;;;;;;;1.50;1.50;;;;;15.58;75.31;100107.03;4973860;28;8824;-68
2022/10/24 02:13:49;;;;;;;;;1.75;1.75;;;;;15.59;75.09;100105.97;4971778;28;8832;-66
2022/10/24 02:16:18;;;;;;;;;2.75;2.00;;;;;15.50;75.53;100105.56;4971913;28;8893;-67
2022/10/24 02:18:48;;;;;;;;;4.25;2.00;;;;;15.47;75.41;100100.59;4964177;28;8847;-68
2022/10/24 02:21:27;;;;;;;;;2.00;1.75;;;;;15.43;75.17;100102.16;4973806;28;9528;-67
2022/10/24 02:24:17;;;;;;;;;2.00;2.00;;;;;15.49;74.72;100098.47;4960156;28;8840;-68
2022/10/24 02:26:51;;;;;;;;;2.25;1.75;;;;;15.50;74.36;100105.56;4970222;28;8873;-67
2022/10/24 02:29:31;;;;;;;;;1.75;1.00;;;;;15.46;74.47;100109.81;4964328;28;8840;-66
2022/10/24 02:31:58;;;;;;;;;2.25;2.25;;;;;15.40;74.27;100099.97;4967334;28;8852;-66
2022/10/24 02:34:30;;;;;;;;;2.25;2.25;;;;;15.40;74.25;100096.44;4969544;28;8851;-67
2022/10/24 02:36:58;;;;;;;;;3.75;2.00;;;;;15.37;73.99;100091.50;4965984;28;8874;-66
2022/10/24 02:39:28;;;;;;;;;3.50;3.00;;;;;15.37;74.02;100099.63;4963347;28;8846;-66
2022/10/24 02:41:56;;;;;;;;;5.50;1.75;;;;;15.32;73.89;100095.75;4968065;28;8855;-66
2022/10/24 02:44:24;;;;;;;;;2.50;2.50;;;;;15.31;73.98;100094.13;4967196;28;8846;-66
2022/10/24 02:46:55;;;;;;;;;2.00;2.00;;;;;15.37;73.45;100103.16;4969034;28;8854;-67
2022/10/24 02:49:23;;;;;;;;;1.00;1.00;;;;;15.44;73.43;100094.88;4967084;28;8843;-67
2022/10/24 02:51:51;;;;;;;;;1.50;1.50;;;;;15.40;72.97;100096.44;4958393;28;8871;-65
2022/10/24 02:54:18;;;;;;;;;2.25;2.25;;;;;15.39;72.92;100097.47;4969787;28;8838;-67
2022/10/24 02:56:56;;;;;;;;;2.25;1.00;;;;;15.43;72.99;100101.34;4965901;28;8836;-67
2022/10/24 02:59:23;;;;;;;;;3.00;2.50;;;;;15.44;72.63;100097.59;4970200;28;8840;-67
2022/10/24 03:01:49;;;;;;;;;1.50;1.50;;;;;15.43;72.94;100087.78;4968717;28;8887;-67
2022/10/24 03:04:16;;;;;;;;;3.25;2.50;;;;;15.46;72.33;100088.13;4960585;28;8839;-67
2022/10/24 03:06:43;;;;;;;;;1.25;1.25;;;;;15.44;71.97;100084.03;4968569;28;8824;-67
2022/10/24 03:09:09;;;;;;;;;1.75;1.00;;;;;15.41;72.06;100088.03;4961904;28;8838;-66
2022/10/24 03:11:36;;;;;;;;;2.00;2.00;;;;;15.46;72.38;100090.84;4979449;28;8844;-67
2022/10/24 03:14:02;;;;;;;;;5.00;3.00;;;;;15.45;72.36;100088.38;4972787;28;8829;-67
2022/10/24 03:16:29;;;;;;;;;3.50;1.50;;;;;15.47;72.17;100087.03;4987252;28;8852;-67
2022/10/24 03:18:55;;;;;;;;;3.75;3.75;;;;;15.46;71.90;100081.88;4971744;28;8854;-65
2022/10/24 03:21:21;;;;;;;;;1.00;1.00;;;;;15.46;72.02;100085.41;4972536;28;8832;-67
2022/10/24 03:23:48;;;;;;;;;1.00;1.00;;;;;15.47;71.92;100081.63;4958913;28;8834;-67
2022/10/24 03:26:15;;;;;;;;;2.00;1.00;;;;;15.41;71.59;100079.09;4961374;28;8833;-67
2022/10/24 03:28:41;;;;;;;;;1.00;1.00;;;;;15.45;71.36;100083.78;4969234;28;8840;-66
2022/10/24 03:31:08;;;;;;;;;2.00;2.00;;;;;15.48;71.24;100080.56;4967848;28;8862;-67
2022/10/24 03:33:35;;;;;;;;;1.00;1.00;;;;;15.41;71.55;100082.63;4957180;28;8866;-67
2022/10/24 03:36:01;;;;;;;;;3.00;1.00;;;;;15.42;71.38;100088.84;4952964;28;9562;-69
2022/10/24 03:38:27;;;;;;;;;2.75;2.00;;;;;15.36;71.63;100079.00;4964323;28;8840;-69
2022/10/24 03:40:54;;;;;;;;;3.00;3.00;;;;;15.34;71.72;100079.22;4964825;28;8902;-65
2022/10/24 03:43:20;;;;;;;;;1.50;1.50;;;;;15.29;71.41;100074.53;4963245;28;8856;-68
2022/10/24 03:45:46;;;;;;;;;2.00;0.75;;;;;15.32;71.34;100076.78;4959146;28;8869;-68
2022/10/24 03:48:13;;;;;;;;;2.25;1.00;;;;;15.20;71.30;100077.91;4961144;28;8836;-69
2022/10/24 03:50:40;;;;;;;;;3.50;1.75;;;;;15.22;71.03;100073.03;4965604;28;8858;-68
2022/10/24 03:53:07;;;;;;;;;1.50;0.00;;;;;15.16;70.68;100088.41;4970892;28;8891;-68
2022/10/24 03:55:33;;;;;;;;;1.50;1.50;;;;;15.17;70.37;100076.50;4966757;28;8882;-69
2022/10/24 03:58:00;;;;;;;;;0.75;0.75;;;;;15.24;70.07;100079.88;4967631;28;8934;-69
2022/10/24 04:00:27;;;;;;;;;2.00;0.50;;;;;15.20;69.75;100081.44;4968836;28;8870;-67
2022/10/24 04:02:55;;;;;;;;;0.75;0.75;;;;;15.20;69.80;100084.16;4959491;28;8867;-68
2022/10/24 04:05:21;;;;;;;;;1.00;1.00;;;;;15.15;69.44;100081.34;4966583;28;8822;-71
2022/10/24 04:07:48;;;;;;;;;0.50;0.50;;;;;15.20;69.65;100070.59;4964400;28;9578;-67
2022/10/24 04:10:14;;;;;;;;;1.25;1.25;;;;;15.30;69.01;100083.50;4961097;28;8993;-67
2022/10/24 04:12:40;;;;;;;;;0.00;0.00;;;;;15.30;68.88;100078.88;4966931;28;9678;-66
2022/10/24 04:15:07;;;;;;;;;1.75;1.25;;;;;15.28;68.36;100078.31;4969976;28;8848;-68
2022/10/24 04:17:33;;;;;;;;;1.00;0.00;;;;;15.33;68.80;100078.41;4966819;28;8875;-68
2022/10/24 04:20:00;;;;;;;;;1.75;1.75;;;;;15.37;68.49;100083.34;4966623;28;8882;-68
2022/10/24 04:22:26;;;;;;;;;0.75;0.75;;;;;15.35;68.21;100089.00;4957113;28;8874;-69
2022/10/24 04:24:53;;;;;;;;;1.00;0.00;;;;;15.32;68.12;100087.63;4961777;28;9043;-68
2022/10/24 04:27:19;;;;;;;;;0.00;0.00;;;;;15.28;67.71;100091.06;4969867;28;8860;-68
2022/10/24 04:29:46;;;;;;;;;0.00;0.00;;;;;15.19;67.72;100079.78;4964765;28;8843;-68
2022/10/24 04:32:12;;;;;;;;;2.75;1.00;;;;;15.24;67.74;100077.16;4982694;28;8848;-69
2022/10/24 04:34:38;;;;;;;;;0.25;0.00;;;;;15.23;67.80;100093.66;4971742;28;8828;-68
2022/10/24 04:37:05;;;;;;;;;0.00;0.00;;;;;15.22;67.79;100082.00;4966852;28;8865;-68
2022/10/24 04:39:31;;;;;;;;;0.00;0.00;;;;;15.22;68.04;100076.56;4955220;28;8881;-67
2022/10/24 04:41:58;;;;;;;;;0.00;0.00;;;;;15.25;68.10;100078.81;4955742;28;11030;-68
2022/10/24 04:44:24;;;;;;;;;0.00;0.00;;;;;15.30;67.70;100084.31;4991073;28;8841;-68
2022/10/24 04:46:51;;;;;;;;;2.00;1.00;;;;;15.26;67.54;100077.72;4986187;28;8852;-68
2022/10/24 04:49:18;;;;;;;;;1.00;1.00;;;;;15.39;67.29;100078.50;4967349;28;8823;-65
2022/10/24 04:51:44;;;;;;;;;0.50;0.50;;;;;15.41;67.67;100076.38;4955324;28;8879;-64
2022/10/24 04:54:11;;;;;;;;;0.50;0.00;;;;;15.25;67.58;100069.84;4970960;28;8864;-66
2022/10/24 04:56:37;;;;;;;;;0.00;0.00;;;;;15.26;67.56;100066.06;4955524;28;8852;-66
2022/10/24 04:59:03;;;;;;;;;0.00;0.00;;;;;15.31;67.74;100071.56;4964634;28;8859;-66
2022/10/24 05:01:30;;;;;;;;;1.00;0.00;;;;;15.34;67.58;100065.66;4961215;28;8832;-67
2022/10/24 05:03:56;;;;;;;;;0.00;0.00;;;;;15.25;67.56;100070.66;4958104;28;8838;-66
2022/10/24 05:06:23;;;;;;;;;0.00;0.00;;;;;15.29;67.71;100069.13;4958879;28;8841;-66
2022/10/24 05:08:49;;;;;;;;;0.00;0.00;;;;;15.28;67.83;100063.94;4965927;28;8870;-68
2022/10/24 05:11:15;;;;;;;;;0.25;0.00;;;;;15.34;67.98;100068.38;4970184;28;8845;-68
2022/10/24 05:13:42;;;;;;;;;0.25;0.25;;;;;15.36;67.43;100068.97;4962605;28;9898;-67
2022/10/24 05:16:08;;;;;;;;;0.00;0.00;;;;;15.34;67.37;100063.78;4958527;28;8866;-67
2022/10/24 05:18:35;;;;;;;;;2.25;1.25;;;;;15.34;67.32;100066.50;4963202;28;8840;-68
2022/10/24 05:21:01;;;;;;;;;0.75;0.00;;;;;15.33;67.25;100064.84;4970874;28;8852;-68
2022/10/24 05:23:27;;;;;;;;;0.00;0.00;;;;;15.43;67.17;100055.22;4957362;28;8844;-64
2022/10/24 05:25:54;;;;;;;;;0.00;0.00;;;;;15.41;66.97;100060.91;4965818;28;8868;-68
2022/10/24 05:28:20;;;;;;;;;0.00;0.00;;;;;15.39;67.22;100056.78;4964481;28;8930;-68
2022/10/24 05:30:47;;;;;;;;;2.00;0.00;;;;;15.44;67.10;100067.75;4956095;28;9953;-68
2022/10/24 05:33:13;;;;;;;;;0.00;0.00;;;;;15.37;67.20;100064.38;4964581;28;8836;-67
2022/10/24 05:35:40;;;;;;;;;1.75;0.00;;;;;15.39;67.13;100060.31;4972348;28;8840;-68
2022/10/24 05:38:07;;;;;;;;;0.25;0.00;;;;;15.40;67.13;100055.75;4966989;28;8855;-69
2022/10/24 05:40:33;;;;;;;;;1.50;0.75;;;;;15.44;66.95;100067.75;4972764;28;8848;-68
2022/10/24 05:42:59;;;;;;;;;0.00;0.00;;;;;15.45;66.76;100061.25;4963568;28;8848;-68
2022/10/24 05:45:26;;;;;;;;;1.75;0.00;;;;;15.41;67.09;100060.09;4974761;28;8820;-68
2022/10/24 05:47:52;;;;;;;;;0.00;0.00;;;;;15.45;67.14;100066.69;4963992;28;8843;-68
2022/10/24 05:50:19;;;;;;;;;0.00;0.00;;;;;15.50;67.10;100059.44;4955045;28;8838;-68
2022/10/24 05:52:45;;;;;;;;;0.00;0.00;;;;;15.54;66.67;100057.88;4963634;28;8836;-68
2022/10/24 05:55:12;;;;;;;;;0.00;0.00;;;;;15.52;66.56;100056.50;4974321;28;8899;-69
2022/10/24 05:57:43;;;;;;;;;0.00;0.00;;;;;15.53;66.65;100052.72;4971641;28;9709;-68
2022/10/24 06:00:13;;;;;;;;;0.00;0.00;;;;;15.54;66.68;100057.06;4974107;28;8922;-68
2022/10/24 06:02:40;;;;;;;;;0.00;0.00;;;;;15.50;67.28;100059.44;4972738;28;8856;-68
2022/10/24 06:05:08;;;;;;;;;0.00;0.00;;;;;15.42;67.25;100061.75;4974362;28;8840;-69
2022/10/24 06:07:35;;;;;;;;;0.00;0.00;;;;;15.47;67.11;100059.91;4972861;28;8848;-68
2022/10/24 06:10:05;;;;;;;;;1.50;0.50;;;;;15.43;67.20;100063.38;4973676;28;8856;-68
2022/10/24 06:12:31;;;;;;;;;0.25;0.00;;;;;15.42;67.64;100072.59;4972406;28;8824;-69
2022/10/24 06:14:59;;;;;;;;;0.75;0.00;;;;;15.38;67.58;100066.00;4974117;28;8828;-68
2022/10/24 06:17:25;;;;;;;;;3.25;1.00;;;;;15.45;67.70;100067.50;4972313;28;8836;-68
2022/10/24 06:19:52;;;;;;;;;0.00;0.00;;;;;15.42;67.83;100061.75;4973816;28;8836;-69
2022/10/24 06:22:19;;;;;;;;;0.00;0.00;;;;;15.38;68.13;100069.53;4972476;28;8840;-67
2022/10/24 06:24:45;;;;;;;;;0.00;0.00;;;;;15.44;68.42;100067.75;4973767;28;8832;-68
2022/10/24 06:27:12;;;;;;;;;0.00;0.00;;;;;15.45;67.88;100072.09;4972044;28;8918;-68
2022/10/24 06:29:38;;;;;;;;;0.00;0.00;;;;;15.49;67.72;100071.38;4973615;28;8866;-68
2022/10/24 06:32:04;;;;;;;;;0.25;0.00;;;;;15.44;68.13;100086.75;4972243;28;8840;-68
2022/10/24 06:34:31;;;;;;;;;0.00;0.00;;;;;15.48;67.88;100090.59;4974026;28;8953;-69
2022/10/24 06:36:57;;;;;;;;;1.25;0.00;;;;;15.49;67.79;100084.94;4972246;28;8858;-69
2022/10/24 06:39:24;;;;;;;;;0.00;0.00;;;;;15.52;67.91;100099.91;4973377;28;8898;-68
2022/10/24 06:41:50;;;;;;;;;0.00;0.00;;;;;15.50;67.96;100089.28;4972105;28;8849;-68
2022/10/24 06:44:17;;;;;;;;;0.00;0.00;;;;;15.48;67.90;100099.56;4973886;28;8828;-67
2022/10/24 06:46:43;;;;;;;;;0.00;0.00;;;;;15.55;67.49;100104.81;4971169;28;8844;-68
2022/10/24 06:49:11;;;;;;;;;0.00;0.00;;;;;15.58;67.59;100110.56;4973482;28;8844;-67
2022/10/24 06:51:38;;;;;;;;;0.00;0.00;;;;;15.56;67.79;100122.75;4971727;28;8844;-66
2022/10/24 06:54:05;;;;;;;;;1.50;0.00;;;;;15.59;67.87;100120.34;4954267;28;8833;-67
2022/10/24 06:56:31;;;;;;;;;1.75;1.00;;;;;15.54;67.82;100125.69;4954244;28;8854;-66
2022/10/24 06:58:58;;;;;;;;;0.00;0.00;;;;;15.63;67.48;100128.00;4968669;28;8839;-67
2022/10/24 07:01:25;;;;;;;;;1.00;0.50;;;;;15.63;67.92;100142.38;4953691;28;8844;-67
2022/10/24 07:03:53;;;;;;;;;1.00;1.00;;;;;15.51;68.01;100144.34;4953951;28;8838;-68
2022/10/24 07:06:25;;;;;;;;;1.00;1.00;;;;;15.43;68.92;100155.59;4953503;28;8866;-67
2022/10/24 07:08:54;;;;;;;;;0.00;0.00;;;;;15.40;69.18;100161.53;4958481;28;8844;-66
2022/10/24 07:11:21;;;;;;;;;0.00;0.00;;;;;15.33;69.99;100156.22;4973077;28;8850;-70
2022/10/24 07:13:48;;;;;;;;;0.00;0.00;;;;;15.36;69.89;100163.06;4971462;28;9623;-67
2022/10/24 07:16:15;;;;;;;;;0.75;0.75;;;;;15.31;70.10;100161.06;4971488;28;8836;-67
2022/10/24 07:18:41;;;;;;;;;0.00;0.00;;;;;15.23;70.81;100153.31;4971192;28;8875;-68
2022/10/24 07:21:17;;;;;;;;;0.00;0.00;;;;;15.31;71.19;100170.03;4972548;28;8838;-66
2022/10/24 07:23:44;;;;;;;;;0.00;0.00;;;;;15.21;71.12;100155.44;4955233;28;8861;-67
2022/10/24 07:26:13;;;;;;;;;0.75;0.75;;;;;15.10;70.71;100173.41;4953535;28;8889;-67
2022/10/24 07:28:41;;;;;;;;;1.25;1.25;;;;;15.09;70.66;100169.03;4954556;28;8939;-68
2022/10/24 07:31:08;;;;;;;;;0.00;0.00;;;;;15.15;70.62;100169.97;4952979;28;9614;-67
2022/10/24 07:33:36;;;;;;;;;1.25;0.00;;;;;15.22;70.10;100182.31;4954425;28;8838;-67
2022/10/24 07:36:02;;;;;;;;;1.50;1.00;;;;;15.22;69.95;100184.19;4953297;28;8865;-66
2022/10/24 07:38:29;;;;;;;;;0.50;0.50;;;;;15.34;70.53;100196.66;4954231;28;8863;-67
2022/10/24 07:40:55;;;;;;;;;1.00;0.00;;;;;15.33;71.57;100200.44;4967813;28;8861;-68
2022/10/24 07:43:22;;;;;;;;;1.00;1.00;;;;;15.32;72.57;100192.56;4954275;28;8838;-68
2022/10/24 07:45:49;;;;;;;;;0.75;0.00;;;;;15.13;73.72;100207.34;4952949;28;8865;-67
2022/10/24 07:48:18;;;;;;;;;0.50;0.50;;;;;15.06;74.55;100200.16;4954796;28;8864;-68
2022/10/24 07:50:46;;;;;;;;;0.00;0.00;;;;;15.06;74.86;100202.03;4952702;28;8838;-66
2022/10/24 07:53:13;;;;;;;;;1.00;0.00;;;;;14.98;74.70;100203.25;4954103;28;8869;-68
2022/10/24 07:55:41;;;;;;;;;1.00;0.00;;;;;14.89;75.10;100215.50;4952774;28;8831;-68
2022/10/24 07:58:09;;;;;;;;;0.25;0.25;;;;;14.87;74.97;100214.09;4953116;28;8870;-66
2022/10/24 08:00:35;;;;;;;;;2.00;0.00;;;;;14.89;74.73;100215.50;4952477;28;8862;-66
2022/10/24 08:03:07;;;;;;;;;1.00;0.00;;;;;14.95;74.94;100211.00;4953973;28;8872;-66
2022/10/24 08:05:34;;;;;;;;;2.00;2.00;;;;;15.02;74.20;100223.38;4952646;28;8973;-66
2022/10/24 08:08:00;;;;;;;;;1.50;1.00;;;;;15.02;74.13;100212.53;4954012;28;8851;-67
2022/10/24 08:10:47;;;;;;;;;1.00;0.00;;;;;14.99;73.59;100221.16;4952817;28;8933;-67
2022/10/24 08:13:13;;;;;;;;;0.50;0.50;;;;;15.02;72.95;100230.69;4953809;28;9546;-65
2022/10/24 08:15:40;;;;;;;;;0.25;0.25;;;;;15.00;72.87;100230.13;4952751;28;8818;-67
2022/10/24 08:18:06;;;;;;;;;1.00;0.00;;;;;15.04;72.41;100234.81;4953866;28;8882;-65
2022/10/24 08:20:33;;;;;;;;;0.00;0.00;;;;;15.04;71.96;100239.44;4952431;28;8846;-67
2022/10/24 08:22:59;;;;;;;;;0.00;0.00;;;;;15.06;71.73;100242.69;4953819;28;8851;-67
2022/10/24 08:25:26;;;;;;;;;0.00;0.00;;;;;15.04;71.54;100251.09;4952551;28;9562;-65
2022/10/24 08:27:52;;;;;;;;;1.00;0.33;;;;;15.03;71.47;100243.19;4953452;28;8873;-66
2022/10/24 08:30:19;;;;;;;;;0.00;0.00;;;;;15.09;71.49;100245.75;4952162;28;8878;-68
2022/10/24 08:32:45;;;;;;;;;0.25;0.25;;;;;15.11;71.62;100240.13;4953644;28;8857;-67
2022/10/24 08:35:16;;;;;;;;;0.75;0.50;;;;;15.07;71.44;100238.94;4952728;28;8862;-66
2022/10/24 08:37:43;;;;;;;;;1.00;1.00;;;;;15.20;71.28;100249.53;4954190;28;9620;-69
2022/10/24 08:40:18;;;;;;;;;0.00;0.00;;;;;15.17;71.14;100246.47;4952683;28;8885;-68
2022/10/24 08:42:46;;;;;;;;;2.50;0.00;;;;;15.29;70.78;100260.81;4953708;28;8830;-67
2022/10/24 08:45:28;;;;;;;;;2.00;0.75;;;;;15.20;70.78;100262.25;4952544;28;8827;-67
2022/10/24 08:48:05;;;;;;;;;0.75;0.75;;;;;15.30;70.80;100259.75;4953621;28;8854;-66
2022/10/24 08:50:35;;;;;;;;;0.25;0.25;;;;;15.27;70.54;100261.06;4952681;28;8831;-68
2022/10/24 08:53:14;;;;;;;;;2.75;1.00;;;;;15.16;70.46;100275.47;4953770;28;8879;-68
2022/10/24 08:55:48;;;;;;;;;0.00;0.00;;;;;15.13;70.71;100254.25;4961188;28;8836;-66
2022/10/24 08:58:25;;;;;;;;;1.00;0.25;;;;;15.09;70.89;100283.72;4969823;28;8923;-68
2022/10/24 09:00:53;;;;;;;;;1.75;0.00;;;;;15.06;71.02;100276.06;4971031;28;9629;-68
2022/10/24 09:03:27;;;;;;;;;0.00;0.00;;;;;15.04;71.27;100278.19;4969975;28;8824;-68
2022/10/24 09:06:40;;;;;;;;;2.00;0.00;;;;;14.99;71.31;100285.38;4971501;28;8926;-67
2022/10/24 09:09:15;;;;;;;;;0.25;0.00;;;;;15.01;71.45;100291.38;4971034;28;8874;-67
2022/10/24 09:11:54;;;;;;;;;1.00;0.00;;;;;15.06;71.46;100296.91;4973477;28;8860;-67
2022/10/24 09:14:22;;;;;;;;;0.00;0.00;;;;;15.13;71.70;100297.63;4975106;28;8828;-66
2022/10/24 09:16:55;;;;;;;;;0.00;0.00;;;;;15.23;71.47;100318.69;4972664;28;8868;-68
2022/10/24 09:19:25;;;;;;;;;0.25;0.25;;;;;15.23;71.19;100303.28;4961564;28;8923;-66
2022/10/24 09:21:53;;;;;;;;;3.00;0.00;;;;;15.18;71.33;100300.44;4973337;28;8873;-68
2022/10/24 09:24:44;;;;;;;;;0.00;0.00;;;;;15.19;71.67;100312.09;4974995;28;8836;-66
2022/10/24 09:27:16;;;;;;;;;0.25;0.25;;;;;15.18;71.39;100316.72;4973709;28;8849;-67
2022/10/24 09:29:43;;;;;;;;;0.00;0.00;;;;;15.23;71.82;100324.97;4974973;28;8828;-67
2022/10/24 09:32:22;;;;;;;;;0.25;0.25;;;;;15.17;71.50;100325.91;4973181;28;8852;-67
2022/10/24 09:34:49;;;;;;;;;0.50;0.25;;;;;15.08;72.02;100321.91;4973673;28;8851;-68
2022/10/24 09:37:42;;;;;;;;;0.00;0.00;;;;;15.09;71.81;100332.50;4973068;28;8966;-68
2022/10/24 09:40:24;;;;;;;;;0.00;0.00;;;;;15.11;71.85;100331.44;4974851;28;8966;-68
2022/10/24 09:42:54;;;;;;;;;2.00;1.00;;;;;15.18;72.00;100341.09;4973330;28;8939;-68
2022/10/24 09:45:30;;;;;;;;;2.25;1.50;;;;;15.16;72.01;100343.25;4974762;28;8840;-67
2022/10/24 09:48:01;;;;;;;;;1.25;0.25;;;;;15.23;72.26;100345.81;4972972;28;8848;-67
2022/10/24 09:50:30;;;;;;;;;0.00;0.00;;;;;15.32;71.91;100347.13;4974300;28;8864;-67
2022/10/24 09:52:58;;;;;;;;;0.00;0.00;;;;;15.45;71.72;100357.72;4972947;28;8848;-67
2022/10/24 09:55:27;;;;;;;;;1.00;1.00;;;;;15.49;71.61;100350.75;4974453;28;8824;-67
2022/10/24 09:57:58;;;;;;;;;0.25;0.00;;;;;15.59;71.08;100369.94;4972621;28;8848;-68
2022/10/24 10:00:31;;;;;;;;;0.00;0.00;;;;;15.65;71.33;100353.81;4974181;28;8872;-67
2022/10/24 10:03:19;;;;;;;;;0.75;0.75;;;;;15.57;70.85;100371.25;4972963;28;8986;-67
2022/10/24 10:05:53;;;;;;;;;0.00;0.00;;;;;15.73;70.75;100367.84;4974174;28;8867;-67
2022/10/24 10:08:37;;;;;;;;;0.00;0.00;;;;;15.85;70.48;100372.41;4973009;28;8828;-68
2022/10/24 10:11:11;;;;;;;;;4.25;0.50;;;;;15.73;70.61;100378.69;4973912;28;8832;-68
2022/10/24 10:13:52;;;;;;;;;0.75;0.00;;;;;15.71;70.96;100402.50;4972813;28;9630;-68
2022/10/24 10:16:26;;;;;;;;;1.50;0.75;;;;;15.65;70.77;100399.94;4973574;28;8833;-66
2022/10/24 10:19:12;;;;;;;;;2.75;1.00;;;;;15.63;70.85;100402.84;4987376;28;8868;-66
2022/10/24 10:21:59;;;;;;;;;0.00;0.00;;;;;15.53;70.19;100399.94;4984678;28;8844;-67
2022/10/24 10:24:34;;;;;;;;;0.75;0.25;;;;;15.62;70.37;100403.09;4976563;28;8840;-67
2022/10/24 10:27:21;;;;;;;;;0.50;0.50;;;;;15.58;70.38;100416.31;4973845;28;8874;-66
2022/10/24 10:29:47;;;;;;;;;2.25;2.25;;;;;15.53;69.55;100410.78;4974282;28;8839;-67
2022/10/24 10:32:36;;;;;;;;;0.25;0.25;;;;;15.60;69.85;100414.19;4972630;28;8844;-68
2022/10/24 10:35:35;;;;;;;;;0.75;0.25;;;;;15.64;70.26;100420.81;4973988;28;8843;-68
2022/10/24 10:38:10;;;;;;;;;0.00;0.00;;;;;15.64;70.27;100423.50;4952197;28;8885;-66
2022/10/24 10:40:43;;;;;;;;;1.00;1.00;;;;;15.63;70.08;100432.69;4954355;28;8822;-67
2022/10/24 10:43:25;;;;;;;;;3.25;1.75;;;;;15.64;70.08;100447.94;4955712;28;8881;-66
2022/10/24 10:46:19;;;;;;;;;0.75;0.75;;;;;15.59;70.10;100455.94;4954368;28;9593;-67
2022/10/24 10:48:52;;;;;;;;;1.00;0.00;;;;;15.57;70.19;100456.19;4955623;28;8869;-66
2022/10/24 10:51:41;;;;;;;;;2.25;0.75;;;;;15.52;70.52;100461.50;4953997;28;8846;-67
2022/10/24 10:54:36;;;;;;;;;1.25;1.25;;;;;15.65;69.97;100459.63;4954312;28;8823;-67
2022/10/24 10:57:15;;;;;;;;;0.75;0.75;;;;;15.66;69.89;100464.00;4957649;28;8887;-66
2022/10/24 10:59:52;;;;;;;;;0.75;0.50;;;;;15.71;69.83;100464.09;4972992;28;8879;-65
2022/10/24 11:02:37;;;;;;;;;2.00;0.00;;;;;15.67;69.19;100466.47;4971992;28;8821;-68
2022/10/24 11:05:28;;;;;;;;;2.00;2.00;;;;;15.63;69.21;100467.97;4973293;28;8832;-66
2022/10/24 11:08:56;;;;;;;;;1.00;1.00;;;;;15.61;69.30;100461.97;4972100;28;8851;-67
2022/10/24 11:11:29;;;;;;;;;0.75;0.75;;;;;15.56;69.27;100481.66;4948500;28;8885;-67
2022/10/24 11:14:05;;;;;;;;;1.25;0.00;;;;;15.66;69.51;100461.28;4971826;28;8879;-67
2022/10/24 11:16:31;;;;;;;;;0.00;0.00;;;;;15.64;69.27;100479.63;4972388;28;8828;-66
2022/10/24 11:19:03;;;;;;;;;0.00;0.00;;;;;15.74;69.09;100483.44;4972422;28;8895;-68
2022/10/24 11:21:33;;;;;;;;;0.50;0.50;;;;;15.75;69.04;100490.53;4972250;28;8829;-68
2022/10/24 11:24:05;;;;;;;;;1.00;0.00;;;;;15.72;68.57;100499.16;4972508;28;8836;-68
2022/10/24 11:26:47;;;;;;;;;1.75;0.50;;;;;15.71;68.83;100477.66;4971522;28;8863;-67
2022/10/24 11:29:46;;;;;;;;;1.00;1.00;;;;;15.63;69.59;100495.09;4953298;28;8838;-65
2022/10/24 11:32:24;;;;;;;;;0.50;0.25;;;;;15.64;69.38;100507.63;4954463;28;8847;-65
2022/10/24 11:35:00;;;;;;;;;0.00;0.00;;;;;15.63;69.45;100503.25;4953520;28;8870;-66
2022/10/24 11:37:31;;;;;;;;;0.75;0.75;;;;;15.70;69.82;100511.31;4954538;28;8855;-67
2022/10/24 11:40:04;;;;;;;;;0.00;0.00;;;;;15.67;70.03;100503.63;4954132;28;8859;-64
2022/10/24 11:42:50;;;;;;;;;2.00;0.00;;;;;15.76;70.05;100518.50;4954696;28;8869;-66
2022/10/24 11:45:21;;;;;;;;;1.25;0.00;;;;;15.69;70.63;100515.09;4954505;28;8831;-65
2022/10/24 11:47:57;;;;;;;;;0.75;0.75;;;;;15.62;70.49;100522.47;4954477;28;8827;-64
2022/10/24 11:50:36;;;;;;;;;0.50;0.50;;;;;15.60;70.80;100511.88;4959861;28;8860;-64
2022/10/24 11:53:23;;;;;;;;;0.75;0.75;;;;;15.67;70.87;100519.91;4970632;28;8885;-64
2022/10/24 11:56:00;;;;;;;;;1.00;1.00;;;;;15.67;71.13;100519.91;4971983;28;9559;-65